createdAt,value
2023-02-08T00:00:26.735Z,1025.84
2023-02-08T00:00:44.827Z,1026.04
2023-02-08T00:01:14.007Z,1026.04
2023-02-08T00:01:35.454Z,1025.94
2023-02-08T00:02:02.491Z,1025.94
2023-02-08T00:02:34.070Z,1025.94
2023-02-08T00:03:05.990Z,1025.84
2023-02-08T00:03:34.988Z,1025.94
2023-02-08T00:03:54.922Z,1025.94
2023-02-08T00:04:26.000Z,1025.94
2023-02-08T00:04:42.499Z,1025.74
2023-02-08T00:05:14.256Z,1025.74
2023-02-08T00:05:35.491Z,1025.94
2023-02-08T00:06:02.407Z,1025.94
2023-02-08T00:06:33.970Z,1025.94
2023-02-08T00:07:06.858Z,1026.04
2023-02-08T00:07:34.420Z,1025.94
2023-02-08T00:07:54.019Z,1025.94
2023-02-08T00:08:26.023Z,1025.94
2023-02-08T00:08:58.074Z,1025.84
2023-02-08T00:09:30.004Z,1025.84
2023-02-08T00:10:03.639Z,1025.84
2023-02-08T00:10:34.196Z,1025.84
2023-02-08T00:11:06.094Z,1025.84
2023-02-08T00:11:34.487Z,1025.84
2023-02-08T00:11:54.016Z,1025.84
2023-02-08T00:12:26.230Z,1025.84
2023-02-08T00:12:58.103Z,1026.04
2023-02-08T00:13:30.846Z,1026.04
2023-02-08T00:14:02.496Z,1025.94
2023-02-08T00:14:34.029Z,1025.94
2023-02-08T00:15:06.614Z,1025.74
2023-02-08T00:15:35.184Z,1026.04
2023-02-08T00:15:54.327Z,1026.04
2023-02-08T00:16:26.046Z,1026.04
2023-02-08T00:16:58.090Z,1025.74
2023-02-08T00:17:30.071Z,1025.74
2023-02-08T00:18:02.496Z,1025.74
2023-02-08T00:18:34.137Z,1025.74
2023-02-08T00:19:06.048Z,1025.74
2023-02-08T00:19:35.375Z,1025.84
2023-02-08T00:19:54.795Z,1025.84
2023-02-08T00:20:26.303Z,1025.84
2023-02-08T00:20:42.706Z,1025.94
2023-02-08T00:21:14.093Z,1025.94
2023-02-08T00:21:35.487Z,1025.94
2023-02-08T00:22:02.427Z,1025.94
2023-02-08T00:22:34.026Z,1025.94
2023-02-08T00:23:06.726Z,1026.04
2023-02-08T00:23:34.453Z,1025.74
2023-02-08T00:23:54.088Z,1025.74
2023-02-08T00:24:26.043Z,1025.74
2023-02-08T00:24:42.495Z,1025.84
2023-02-08T00:25:14.282Z,1025.84
2023-02-08T00:25:35.490Z,1025.94
2023-02-08T00:26:02.459Z,1025.94
2023-02-08T00:26:34.017Z,1025.94
2023-02-08T00:27:06.041Z,1026.04
2023-02-08T00:27:34.462Z,1025.94
2023-02-08T00:27:54.068Z,1025.94
2023-02-08T00:28:26.510Z,1025.94
2023-02-08T00:28:58.063Z,1025.84
2023-02-08T00:29:30.833Z,1025.84
2023-02-08T00:30:04.209Z,1025.84
2023-02-08T00:30:34.107Z,1025.84
2023-02-08T00:31:06.211Z,1025.94
2023-02-08T00:31:34.542Z,1025.84
2023-02-08T00:31:54.106Z,1025.84
2023-02-08T00:32:26.095Z,1025.84
2023-02-08T00:32:58.094Z,1025.94
2023-02-08T00:33:30.181Z,1025.94
2023-02-08T00:34:02.548Z,1025.74
2023-02-08T00:34:34.062Z,1025.74
2023-02-08T00:35:06.452Z,1025.94
2023-02-08T00:35:34.425Z,1025.53
2023-02-08T00:35:54.984Z,1025.53
2023-02-08T00:36:26.027Z,1025.53
2023-02-08T00:36:58.064Z,1025.74
2023-02-08T00:37:30.045Z,1025.74
2023-02-08T00:38:02.497Z,1025.74
2023-02-08T00:38:34.045Z,1025.74
2023-02-08T00:39:06.858Z,1025.63
2023-02-08T00:39:34.441Z,1025.74
2023-02-08T00:39:54.063Z,1025.74
2023-02-08T00:40:26.936Z,1025.74
2023-02-08T00:40:58.107Z,1025.84
2023-02-08T00:41:30.035Z,1025.84
2023-02-08T00:42:02.702Z,1025.53
2023-02-08T00:42:34.097Z,1025.53
2023-02-08T00:43:06.095Z,1025.74
2023-02-08T00:43:34.429Z,1025.84
2023-02-08T00:43:54.028Z,1025.84
2023-02-08T00:44:26.036Z,1025.84
2023-02-08T00:44:58.074Z,1025.84
2023-02-08T00:45:31.910Z,1025.84
2023-02-08T00:46:03.368Z,1025.74
2023-02-08T00:46:34.636Z,1025.74
2023-02-08T00:47:06.061Z,1025.63
2023-02-08T00:47:34.416Z,1025.53
2023-02-08T00:47:54.046Z,1025.53
2023-02-08T00:48:26.199Z,1025.53
2023-02-08T00:48:58.122Z,1025.53
2023-02-08T00:49:30.080Z,1025.53
2023-02-08T00:50:03.850Z,1025.94
2023-02-08T00:50:34.089Z,1025.94
2023-02-08T00:51:06.103Z,1025.84
2023-02-08T00:51:34.452Z,1025.74
2023-02-08T00:51:54.854Z,1025.74
2023-02-08T00:52:26.043Z,1025.74
2023-02-08T00:52:58.123Z,1025.74
2023-02-08T00:53:30.118Z,1025.74
2023-02-08T00:54:02.480Z,1025.84
2023-02-08T00:54:34.251Z,1025.84
2023-02-08T00:55:07.248Z,1025.63
2023-02-08T00:55:34.441Z,1025.74
2023-02-08T00:55:54.317Z,1025.74
2023-02-08T00:56:26.064Z,1025.74
2023-02-08T00:56:58.129Z,1025.84
2023-02-08T00:57:30.105Z,1025.84
2023-02-08T00:58:02.561Z,1026.04
2023-02-08T00:58:34.082Z,1026.04
2023-02-08T00:59:06.116Z,1025.63
2023-02-08T00:59:34.723Z,1025.84
2023-02-08T00:59:54.039Z,1025.84
2023-02-08T01:00:26.761Z,1025.84
2023-02-08T01:00:58.143Z,1025.63
2023-02-08T01:01:30.881Z,1025.63
2023-02-08T01:02:02.751Z,1025.84
2023-02-08T01:02:34.107Z,1025.84
2023-02-08T01:03:06.059Z,1026.04
2023-02-08T01:03:34.541Z,1025.63
2023-02-08T01:03:54.094Z,1025.63
2023-02-08T01:04:26.103Z,1025.63
2023-02-08T01:04:58.113Z,1025.84
2023-02-08T01:05:30.390Z,1025.84
2023-02-08T01:06:02.555Z,1025.74
2023-02-08T01:06:34.090Z,1025.74
2023-02-08T01:07:06.083Z,1025.84
2023-02-08T01:07:34.407Z,1025.94
2023-02-08T01:07:54.877Z,1025.94
2023-02-08T01:08:26.085Z,1025.94
2023-02-08T01:08:58.105Z,1025.84
2023-02-08T01:09:30.089Z,1025.84
2023-02-08T01:10:03.542Z,1025.84
2023-02-08T01:10:34.052Z,1025.84
2023-02-08T01:11:06.969Z,1025.94
2023-02-08T01:11:34.421Z,1025.74
2023-02-08T01:11:54.126Z,1025.74
2023-02-08T01:12:26.147Z,1025.74
2023-02-08T01:12:58.161Z,1025.94
2023-02-08T01:13:30.075Z,1025.94
2023-02-08T01:14:02.567Z,1025.74
2023-02-08T01:14:34.119Z,1025.74
2023-02-08T01:15:06.805Z,1025.74
2023-02-08T01:15:34.433Z,1025.74
2023-02-08T01:15:54.370Z,1025.74
2023-02-08T01:16:26.165Z,1025.74
2023-02-08T01:16:58.122Z,1025.94
2023-02-08T01:17:30.904Z,1025.94
2023-02-08T01:18:02.460Z,1025.84
2023-02-08T01:18:34.089Z,1025.84
2023-02-08T01:19:06.085Z,1025.74
2023-02-08T01:19:34.623Z,1025.84
2023-02-08T01:19:54.114Z,1025.84
2023-02-08T01:20:26.464Z,1025.84
2023-02-08T01:20:58.130Z,1025.94
2023-02-08T01:21:30.151Z,1025.94
2023-02-08T01:22:02.513Z,1025.74
2023-02-08T01:22:34.498Z,1025.74
2023-02-08T01:23:06.104Z,1025.84
2023-02-08T01:23:34.432Z,1025.84
2023-02-08T01:23:54.911Z,1025.84
2023-02-08T01:24:26.142Z,1025.84
2023-02-08T01:24:58.153Z,1025.94
2023-02-08T01:25:30.391Z,1025.94
2023-02-08T01:26:02.573Z,1025.84
2023-02-08T01:26:34.097Z,1025.84
2023-02-08T01:27:06.997Z,1025.74
2023-02-08T01:27:34.470Z,1025.74
2023-02-08T01:27:54.145Z,1025.74
2023-02-08T01:28:26.157Z,1025.74
2023-02-08T01:28:58.158Z,1025.63
2023-02-08T01:29:30.164Z,1025.63
2023-02-08T01:30:04.160Z,1025.53
2023-02-08T01:30:34.442Z,1025.53
2023-02-08T01:31:06.167Z,1025.74
2023-02-08T01:31:34.446Z,1025.74
2023-02-08T01:31:54.143Z,1025.74
2023-02-08T01:32:26.131Z,1025.74
2023-02-08T01:32:58.127Z,1025.43
2023-02-08T01:33:30.935Z,1025.43
2023-02-08T01:34:02.573Z,1025.53
2023-02-08T01:34:34.106Z,1025.53
2023-02-08T01:35:06.412Z,1025.74
2023-02-08T01:35:34.439Z,1025.74
2023-02-08T01:35:54.403Z,1025.74
2023-02-08T01:36:26.168Z,1025.74
2023-02-08T01:36:58.135Z,1025.63
2023-02-08T01:37:30.157Z,1025.63
2023-02-08T01:38:02.576Z,1025.74
2023-02-08T01:38:34.223Z,1025.74
2023-02-08T01:39:06.100Z,1025.74
2023-02-08T01:39:34.425Z,1025.74
2023-02-08T01:39:54.912Z,1025.74
2023-02-08T01:40:27.548Z,1025.74
2023-02-08T01:40:59.190Z,1025.74
2023-02-08T01:41:30.390Z,1025.74
2023-02-08T01:42:02.742Z,1025.63
2023-02-08T01:42:34.770Z,1025.63
2023-02-08T01:43:07.071Z,1025.63
2023-02-08T01:43:34.655Z,1025.63
2023-02-08T01:43:54.170Z,1025.63
2023-02-08T01:44:28.772Z,1025.63
2023-02-08T01:44:58.298Z,1025.74
2023-02-08T01:45:32.174Z,1025.74
2023-02-08T01:46:04.319Z,1025.53
2023-02-08T01:46:34.300Z,1025.53
2023-02-08T01:47:06.383Z,1025.74
2023-02-08T01:47:35.205Z,1025.63
2023-02-08T01:47:54.158Z,1025.63
2023-02-08T01:48:26.333Z,1025.63
2023-02-08T01:48:58.255Z,1025.74
2023-02-08T01:49:31.027Z,1025.74
2023-02-08T01:50:05.293Z,1025.43
2023-02-08T01:50:34.173Z,1025.43
2023-02-08T01:51:06.243Z,1025.63
2023-02-08T01:51:34.451Z,1025.63
2023-02-08T01:51:54.320Z,1025.63
2023-02-08T01:52:26.273Z,1025.63
2023-02-08T01:52:58.207Z,1025.63
2023-02-08T01:53:30.196Z,1025.63
2023-02-08T01:54:02.665Z,1025.63
2023-02-08T01:54:35.176Z,1025.63
2023-02-08T01:55:06.595Z,1025.53
2023-02-08T01:55:35.209Z,1025.63
2023-02-08T01:55:55.089Z,1025.63
2023-02-08T01:56:26.180Z,1025.63
2023-02-08T01:56:58.304Z,1025.63
2023-02-08T01:57:30.261Z,1025.63
2023-02-08T01:58:02.621Z,1025.53
2023-02-08T01:58:34.577Z,1025.53
2023-02-08T01:59:07.800Z,1025.74
2023-02-08T01:59:34.446Z,1025.53
2023-02-08T01:59:54.247Z,1025.53
2023-02-08T02:00:27.029Z,1025.53
2023-02-08T02:00:58.319Z,1025.43
2023-02-08T02:01:30.187Z,1025.43
2023-02-08T02:02:02.708Z,1025.43
2023-02-08T02:02:34.168Z,1025.43
2023-02-08T02:03:06.243Z,1025.63
2023-02-08T02:03:34.425Z,1025.63
2023-02-08T02:03:54.169Z,1025.63
2023-02-08T02:04:26.247Z,1025.63
2023-02-08T02:04:58.249Z,1025.43
2023-02-08T02:05:31.325Z,1025.43
2023-02-08T02:06:02.642Z,1025.43
2023-02-08T02:06:34.168Z,1025.43
2023-02-08T02:07:06.199Z,1025.63
2023-02-08T02:07:34.550Z,1025.53
2023-02-08T02:07:54.227Z,1025.53
2023-02-08T02:08:26.250Z,1025.53
2023-02-08T02:08:58.255Z,1025.53
2023-02-08T02:09:30.310Z,1025.53
2023-02-08T02:10:03.794Z,1025.43
2023-02-08T02:10:34.206Z,1025.43
2023-02-08T02:11:06.176Z,1025.23
2023-02-08T02:11:34.440Z,1025.43
2023-02-08T02:11:54.868Z,1025.43
2023-02-08T02:12:26.281Z,1025.43
2023-02-08T02:12:58.294Z,1025.53
2023-02-08T02:13:30.224Z,1025.53
2023-02-08T02:14:02.822Z,1025.53
2023-02-08T02:14:34.177Z,1025.53
2023-02-08T02:15:07.900Z,1025.43
2023-02-08T02:15:34.530Z,1025.63
2023-02-08T02:15:54.535Z,1025.63
2023-02-08T02:16:26.393Z,1025.63
2023-02-08T02:16:58.265Z,1025.53
2023-02-08T02:17:30.191Z,1025.53
2023-02-08T02:18:02.684Z,1025.53
2023-02-08T02:18:34.243Z,1025.53
2023-02-08T02:19:06.259Z,1025.63
2023-02-08T02:19:34.433Z,1025.74
2023-02-08T02:19:54.174Z,1025.74
2023-02-08T02:20:26.625Z,1025.74
2023-02-08T02:20:58.291Z,1025.63
2023-02-08T02:21:31.009Z,1025.63
2023-02-08T02:22:02.747Z,1025.63
2023-02-08T02:22:34.514Z,1025.63
2023-02-08T02:23:06.180Z,1025.74
2023-02-08T02:23:34.477Z,1025.43
2023-02-08T02:23:54.200Z,1025.43
2023-02-08T02:24:26.271Z,1025.43
2023-02-08T02:24:58.262Z,1025.53
2023-02-08T02:25:30.626Z,1025.53
2023-02-08T02:26:02.649Z,1025.43
2023-02-08T02:26:34.205Z,1025.43
2023-02-08T02:27:06.226Z,1025.53
2023-02-08T02:27:34.435Z,1025.53
2023-02-08T02:27:56.103Z,1025.53
2023-02-08T02:28:26.297Z,1025.53
2023-02-08T02:28:58.217Z,1025.43
2023-02-08T02:29:30.199Z,1025.43
2023-02-08T02:30:04.136Z,1025.33
2023-02-08T02:30:34.254Z,1025.33
2023-02-08T02:31:08.890Z,1025.53
2023-02-08T02:31:34.456Z,1025.43
2023-02-08T02:31:54.322Z,1025.43
2023-02-08T02:32:26.280Z,1025.43
2023-02-08T02:32:58.545Z,1025.53
2023-02-08T02:33:30.291Z,1025.53
2023-02-08T02:34:02.717Z,1025.33
2023-02-08T02:34:34.307Z,1025.33
2023-02-08T02:35:06.542Z,1025.33
2023-02-08T02:35:34.422Z,1025.43
2023-02-08T02:35:54.495Z,1025.43
2023-02-08T02:36:26.316Z,1025.43
2023-02-08T02:36:58.216Z,1025.53
2023-02-08T02:37:31.123Z,1025.53
2023-02-08T02:38:02.614Z,1025.43
2023-02-08T02:38:34.177Z,1025.43
2023-02-08T02:39:06.208Z,1025.74
2023-02-08T02:39:34.418Z,1025.43
2023-02-08T02:39:54.237Z,1025.43
2023-02-08T02:40:26.546Z,1025.43
2023-02-08T02:40:58.222Z,1025.43
2023-02-08T02:41:30.307Z,1025.43
2023-02-08T02:42:02.778Z,1025.53
2023-02-08T02:42:34.925Z,1025.53
2023-02-08T02:43:06.230Z,1025.33
2023-02-08T02:43:34.432Z,1025.43
2023-02-08T02:43:55.099Z,1025.43
2023-02-08T02:44:26.269Z,1025.43
2023-02-08T02:44:58.220Z,1025.23
2023-02-08T02:45:30.722Z,1025.23
2023-02-08T02:46:03.633Z,1025.43
2023-02-08T02:46:34.366Z,1025.43
2023-02-08T02:47:06.999Z,1025.43
2023-02-08T02:47:34.621Z,1025.43
2023-02-08T02:47:54.222Z,1025.43
2023-02-08T02:48:26.283Z,1025.43
2023-02-08T02:48:58.257Z,1025.43
2023-02-08T02:49:30.207Z,1025.43
2023-02-08T02:50:03.662Z,1025.23
2023-02-08T02:50:34.243Z,1025.23
2023-02-08T02:51:06.214Z,1025.53
2023-02-08T02:51:34.828Z,1025.43
2023-02-08T02:51:54.220Z,1025.43
2023-02-08T02:52:26.276Z,1025.43
2023-02-08T02:52:58.278Z,1025.23
2023-02-08T02:53:30.956Z,1025.23
2023-02-08T02:54:02.727Z,1025.33
2023-02-08T02:54:34.222Z,1025.33
2023-02-08T02:55:06.514Z,1025.43
2023-02-08T02:55:34.930Z,1025.43
2023-02-08T02:55:54.446Z,1025.43
2023-02-08T02:56:26.305Z,1025.43
2023-02-08T02:56:58.486Z,1025.33
2023-02-08T02:57:30.239Z,1025.33
2023-02-08T02:58:02.710Z,1025.53
2023-02-08T02:58:34.244Z,1025.53
2023-02-08T02:59:06.259Z,1025.43
2023-02-08T02:59:34.405Z,1025.23
2023-02-08T02:59:55.106Z,1025.23
2023-02-08T03:00:26.896Z,1025.23
2023-02-08T03:00:58.366Z,1025.23
2023-02-08T03:01:30.418Z,1025.23
2023-02-08T03:02:02.793Z,1025.33
2023-02-08T03:02:34.195Z,1025.33
2023-02-08T03:03:07.249Z,1025.23
2023-02-08T03:03:34.427Z,1025.33
2023-02-08T03:03:54.424Z,1025.33
2023-02-08T03:04:26.292Z,1025.33
2023-02-08T03:04:58.286Z,1025.23
2023-02-08T03:05:30.597Z,1025.23
2023-02-08T03:06:02.708Z,1025.43
2023-02-08T03:06:34.254Z,1025.43
2023-02-08T03:07:06.290Z,1025.43
2023-02-08T03:07:34.437Z,1025.23
2023-02-08T03:07:54.251Z,1025.23
2023-02-08T03:08:26.348Z,1025.23
2023-02-08T03:08:58.263Z,1025.43
2023-02-08T03:09:32.364Z,1025.43
2023-02-08T03:10:03.708Z,1025.33
2023-02-08T03:10:34.218Z,1025.33
2023-02-08T03:11:06.275Z,1025.33
2023-02-08T03:11:34.433Z,1025.33
2023-02-08T03:11:54.259Z,1025.33
2023-02-08T03:12:26.332Z,1025.33
2023-02-08T03:12:58.258Z,1025.33
2023-02-08T03:13:30.282Z,1025.33
2023-02-08T03:14:02.710Z,1025.43
2023-02-08T03:14:34.558Z,1025.43
2023-02-08T03:15:06.750Z,1025.43
2023-02-08T03:15:34.438Z,1025.33
2023-02-08T03:15:55.322Z,1025.33
2023-02-08T03:16:26.372Z,1025.33
2023-02-08T03:16:58.343Z,1025.33
2023-02-08T03:17:30.302Z,1025.33
2023-02-08T03:18:02.777Z,1025.33
2023-02-08T03:18:34.240Z,1025.33
2023-02-08T03:19:07.066Z,1025.23
2023-02-08T03:19:34.514Z,1025.33
2023-02-08T03:19:54.320Z,1025.33
2023-02-08T03:20:26.702Z,1025.33
2023-02-08T03:20:58.333Z,1025.33
2023-02-08T03:21:30.242Z,1025.33
2023-02-08T03:22:02.761Z,1025.33
2023-02-08T03:22:34.299Z,1025.33
2023-02-08T03:23:06.277Z,1025.13
2023-02-08T03:23:35.037Z,1025.43
2023-02-08T03:23:54.252Z,1025.43
2023-02-08T03:24:26.265Z,1025.43
2023-02-08T03:24:58.581Z,1025.43
2023-02-08T03:25:31.378Z,1025.43
2023-02-08T03:26:02.751Z,1025.53
2023-02-08T03:26:34.251Z,1025.53
2023-02-08T03:27:06.260Z,1025.33
2023-02-08T03:27:34.467Z,1025.23
2023-02-08T03:27:54.304Z,1025.23
2023-02-08T03:28:26.407Z,1025.23
2023-02-08T03:28:58.336Z,1025.33
2023-02-08T03:29:30.319Z,1025.33
2023-02-08T03:30:03.951Z,1025.23
2023-02-08T03:30:34.419Z,1025.23
2023-02-08T03:31:06.442Z,1025.33
2023-02-08T03:31:34.544Z,1025.43
2023-02-08T03:31:55.273Z,1025.43
2023-02-08T03:32:26.344Z,1025.43
2023-02-08T03:32:58.312Z,1025.43
2023-02-08T03:33:30.374Z,1025.43
2023-02-08T03:34:02.718Z,1025.23
2023-02-08T03:34:34.281Z,1025.23
2023-02-08T03:35:07.514Z,1025.33
2023-02-08T03:35:34.626Z,1025.33
2023-02-08T03:35:54.546Z,1025.33
2023-02-08T03:36:26.343Z,1025.33
2023-02-08T03:36:58.343Z,1025.33
2023-02-08T03:37:30.339Z,1025.33
2023-02-08T03:40:34.753Z,1025.53
2023-02-08T03:40:59.493Z,1025.53
2023-02-08T03:41:30.307Z,1025.53
2023-02-08T03:42:03.069Z,1025.43
2023-02-08T03:42:34.324Z,1025.43
2023-02-08T03:43:06.311Z,1025.43
2023-02-08T03:43:36.839Z,1025.23
2023-02-08T03:43:54.338Z,1025.23
2023-02-08T03:44:26.319Z,1025.23
2023-02-08T03:44:58.311Z,1025.23
2023-02-08T03:45:30.960Z,1025.23
2023-02-08T03:46:03.462Z,1025.43
2023-02-08T03:46:34.316Z,1025.43
2023-02-08T03:47:06.296Z,1025.33
2023-02-08T03:47:34.401Z,1025.43
2023-02-08T03:47:54.298Z,1025.43
2023-02-08T03:48:26.375Z,1025.43
2023-02-08T03:48:58.347Z,1025.23
2023-02-08T03:49:30.316Z,1025.23
2023-02-08T03:50:03.785Z,1025.33
2023-02-08T03:50:34.320Z,1025.33
2023-02-08T03:51:06.300Z,1025.43
2023-02-08T03:51:34.830Z,1025.23
2023-02-08T03:51:54.337Z,1025.23
2023-02-08T03:52:26.347Z,1025.23
2023-02-08T03:52:58.385Z,1025.33
2023-02-08T03:53:30.297Z,1025.33
2023-02-08T03:54:02.802Z,1025.53
2023-02-08T03:54:34.348Z,1025.53
2023-02-08T03:55:06.592Z,1025.74
2023-02-08T03:55:34.441Z,1025.43
2023-02-08T03:55:54.568Z,1025.43
2023-02-08T03:56:27.188Z,1025.43
2023-02-08T03:56:58.372Z,1025.33
2023-02-08T03:57:30.368Z,1025.33
2023-02-08T03:58:02.820Z,1025.53
2023-02-08T03:58:34.320Z,1025.53
2023-02-08T03:59:06.334Z,1025.43
2023-02-08T03:59:35.429Z,1025.43
2023-02-08T03:59:54.337Z,1025.43
2023-02-08T04:00:26.953Z,1025.43
2023-02-08T04:00:58.386Z,1025.53
2023-02-08T04:01:30.437Z,1025.53
2023-02-08T04:02:02.897Z,1025.33
2023-02-08T04:02:34.394Z,1025.33
2023-02-08T04:03:06.387Z,1025.43
2023-02-08T04:03:34.404Z,1025.33
2023-02-08T04:03:54.362Z,1025.33
2023-02-08T04:04:26.423Z,1025.33
2023-02-08T04:04:58.362Z,1025.43
2023-02-08T04:05:30.632Z,1025.43
2023-02-08T04:06:03.137Z,1025.53
2023-02-08T04:06:34.619Z,1025.53
2023-02-08T04:07:06.324Z,1025.33
2023-02-08T04:07:34.418Z,1025.53
2023-02-08T04:07:54.401Z,1025.53
2023-02-08T04:08:26.365Z,1025.53
2023-02-08T04:08:58.379Z,1025.53
2023-02-08T04:09:30.401Z,1025.53
2023-02-08T04:10:03.905Z,1025.43
2023-02-08T04:10:34.368Z,1025.43
2023-02-08T04:11:06.387Z,1025.43
2023-02-08T04:11:34.816Z,1025.33
2023-02-08T04:11:54.384Z,1025.33
2023-02-08T04:12:28.067Z,1025.33
2023-02-08T04:12:58.378Z,1025.33
2023-02-08T04:13:30.335Z,1025.33
2023-02-08T04:14:02.820Z,1025.53
2023-02-08T04:14:34.553Z,1025.53
2023-02-08T04:15:06.953Z,1025.13
2023-02-08T04:15:36.252Z,1025.43
2023-02-08T04:15:54.620Z,1025.43
2023-02-08T04:16:26.448Z,1025.43
2023-02-08T04:16:58.677Z,1025.43
2023-02-08T04:17:30.405Z,1025.43
2023-02-08T04:18:02.818Z,1025.33
2023-02-08T04:18:34.342Z,1025.33
2023-02-08T04:19:06.357Z,1025.13
2023-02-08T04:19:34.415Z,1025.53
2023-02-08T04:19:54.344Z,1025.53
2023-02-08T04:20:26.656Z,1025.53
2023-02-08T04:20:59.787Z,1025.33
2023-02-08T04:21:31.302Z,1025.33
2023-02-08T04:22:03.191Z,1025.23
2023-02-08T04:22:34.371Z,1025.23
2023-02-08T04:23:06.377Z,1025.33
2023-02-08T04:23:34.406Z,1025.33
2023-02-08T04:23:54.372Z,1025.33
2023-02-08T04:24:26.412Z,1025.33
2023-02-08T04:24:58.435Z,1025.23
2023-02-08T04:25:30.649Z,1025.23
2023-02-08T04:26:02.856Z,1025.23
2023-02-08T04:26:34.380Z,1025.23
2023-02-08T04:27:06.411Z,1025.33
2023-02-08T04:27:34.477Z,1025.33
2023-02-08T04:27:54.408Z,1025.33
2023-02-08T04:28:27.227Z,1025.33
2023-02-08T04:28:58.362Z,1025.43
2023-02-08T04:29:30.393Z,1025.43
2023-02-08T04:30:04.195Z,1025.43
2023-02-08T04:30:34.446Z,1025.43
2023-02-08T04:31:06.555Z,1025.43
2023-02-08T04:31:36.535Z,1025.33
2023-02-08T04:31:54.440Z,1025.33
2023-02-08T04:32:26.538Z,1025.33
2023-02-08T04:32:58.402Z,1025.33
2023-02-08T04:33:30.401Z,1025.33
2023-02-08T04:34:02.842Z,1025.43
2023-02-08T04:34:34.395Z,1025.43
2023-02-08T04:35:06.687Z,1025.33
2023-02-08T04:35:34.449Z,1025.43
2023-02-08T04:35:54.604Z,1025.43
2023-02-08T04:36:26.440Z,1025.43
2023-02-08T04:36:58.390Z,1025.33
2023-02-08T04:37:30.412Z,1025.33
2023-02-08T04:38:03.291Z,1025.43
2023-02-08T04:38:34.648Z,1025.43
2023-02-08T04:39:06.389Z,1025.23
2023-02-08T04:39:34.402Z,1025.23
2023-02-08T04:39:54.455Z,1025.23
2023-02-08T04:40:26.789Z,1025.23
2023-02-08T04:40:58.456Z,1025.33
2023-02-08T04:41:30.436Z,1025.33
2023-02-08T04:42:03.418Z,1025.33
2023-02-08T04:42:34.390Z,1025.33
2023-02-08T04:43:06.411Z,1025.43
2023-02-08T04:43:34.397Z,1025.02
2023-02-08T04:43:54.376Z,1025.02
2023-02-08T04:44:27.236Z,1025.02
2023-02-08T04:44:58.421Z,1025.33
2023-02-08T04:45:30.923Z,1025.33
2023-02-08T04:46:03.562Z,1025.23
2023-02-08T04:46:34.764Z,1025.23
2023-02-08T04:47:06.528Z,1025.43
2023-02-08T04:47:35.525Z,1025.43
2023-02-08T04:47:54.444Z,1025.43
2023-02-08T04:48:26.459Z,1025.43
2023-02-08T04:48:59.109Z,1025.43
2023-02-08T04:49:30.419Z,1025.43
2023-02-08T04:50:03.633Z,1025.53
2023-02-08T04:50:34.743Z,1025.53
2023-02-08T04:51:06.419Z,1025.33
2023-02-08T04:51:34.438Z,1025.33
2023-02-08T04:51:54.413Z,1025.33
2023-02-08T04:52:26.487Z,1025.33
2023-02-08T04:52:58.408Z,1025.33
2023-02-08T04:53:30.430Z,1025.33
2023-02-08T04:54:03.215Z,1025.13
2023-02-08T04:54:34.436Z,1025.13
2023-02-08T04:55:06.712Z,1025.23
2023-02-08T04:55:34.418Z,1025.33
2023-02-08T04:55:54.670Z,1025.33
2023-02-08T04:56:26.457Z,1025.33
2023-02-08T04:56:58.472Z,1025.23
2023-02-08T04:57:30.449Z,1025.23
2023-02-08T04:58:02.911Z,1025.13
2023-02-08T04:58:34.719Z,1025.13
2023-02-08T04:59:06.431Z,1025.23
2023-02-08T04:59:34.418Z,1025.23
2023-02-08T04:59:54.400Z,1025.23
2023-02-08T05:00:27.819Z,1025.23
2023-02-08T05:00:58.469Z,1025.33
2023-02-08T05:01:30.442Z,1025.33
2023-02-08T05:02:02.307Z,1025.02
2023-02-08T05:02:33.941Z,1025.02
2023-02-08T05:03:06.012Z,1025.02
2023-02-08T05:03:35.185Z,1025.33
2023-02-08T05:03:53.952Z,1025.33
2023-02-08T05:04:26.024Z,1025.33
2023-02-08T05:04:58.011Z,1025.33
2023-02-08T05:05:30.255Z,1025.33
2023-02-08T05:06:03.987Z,1025.33
2023-02-08T05:06:36.038Z,1025.33
2023-02-08T05:07:06.719Z,1025.23
2023-02-08T05:07:34.413Z,1025.23
2023-02-08T05:07:54.429Z,1025.23
2023-02-08T05:08:26.513Z,1025.23
2023-02-08T05:08:58.779Z,1025.33
2023-02-08T05:09:30.431Z,1025.33
2023-02-08T05:10:03.512Z,1025.13
2023-02-08T05:10:34.440Z,1025.13
2023-02-08T05:11:06.456Z,1025.23
2023-02-08T05:11:34.456Z,1025.23
2023-02-08T05:11:54.482Z,1025.23
2023-02-08T05:12:26.508Z,1025.23
2023-02-08T05:12:58.487Z,1025.13
2023-02-08T05:13:30.504Z,1025.13
2023-02-08T05:14:02.470Z,1025.33
2023-02-08T05:14:34.486Z,1025.33
2023-02-08T05:15:07.133Z,1025.23
2023-02-08T05:15:34.531Z,1025.13
2023-02-08T05:15:54.747Z,1025.13
2023-02-08T05:16:30.084Z,1025.13
2023-02-08T05:16:58.474Z,1025.43
2023-02-08T05:17:30.496Z,1025.43
2023-02-08T05:18:02.578Z,1025.02
2023-02-08T05:18:34.650Z,1025.02
2023-02-08T05:19:06.618Z,1025.33
2023-02-08T05:19:35.988Z,1025.53
2023-02-08T05:19:54.498Z,1025.53
2023-02-08T05:20:26.899Z,1025.53
2023-02-08T05:20:58.462Z,1025.23
2023-02-08T05:21:30.512Z,1025.23
2023-02-08T05:22:02.506Z,1025.33
2023-02-08T05:22:34.585Z,1025.33
2023-02-08T05:23:06.494Z,1025.33
2023-02-08T05:23:34.458Z,1025.23
2023-02-08T05:23:54.468Z,1025.23
2023-02-08T05:24:26.500Z,1025.23
2023-02-08T05:24:58.508Z,1025.13
2023-02-08T05:25:30.753Z,1025.13
2023-02-08T05:26:03.252Z,1025.33
2023-02-08T05:26:34.506Z,1025.33
2023-02-08T05:27:06.507Z,1025.13
2023-02-08T05:27:34.465Z,1025.33
2023-02-08T05:27:54.566Z,1025.33
2023-02-08T05:28:26.588Z,1025.33
2023-02-08T05:28:58.517Z,1025.23
2023-02-08T05:29:30.468Z,1025.23
2023-02-08T05:30:03.578Z,1025.13
2023-02-08T05:30:34.552Z,1025.13
2023-02-08T05:31:06.687Z,1025.02
2023-02-08T05:31:34.534Z,1025.23
2023-02-08T05:31:54.534Z,1025.23
2023-02-08T05:32:27.373Z,1025.23
2023-02-08T05:32:58.489Z,1025.13
2023-02-08T05:33:30.758Z,1025.13
2023-02-08T05:34:02.459Z,1025.23
2023-02-08T05:34:34.766Z,1025.23
2023-02-08T05:35:06.821Z,1025.33
2023-02-08T05:35:35.240Z,1025.13
2023-02-08T05:35:54.711Z,1025.13
2023-02-08T05:36:26.564Z,1025.13
2023-02-08T05:36:58.615Z,1025.43
2023-02-08T05:37:30.539Z,1025.43
2023-02-08T05:38:02.456Z,1025.02
2023-02-08T05:38:34.552Z,1025.02
2023-02-08T05:39:06.576Z,1025.13
2023-02-08T05:39:34.421Z,1025.23
2023-02-08T05:39:54.505Z,1025.23
2023-02-08T05:40:26.813Z,1025.23
2023-02-08T05:40:58.519Z,1025.33
2023-02-08T05:41:30.520Z,1025.33
2023-02-08T05:42:05.362Z,1025.23
2023-02-08T05:42:34.499Z,1025.23
2023-02-08T05:43:06.560Z,1025.13
2023-02-08T05:43:34.387Z,1025.33
2023-02-08T05:43:54.537Z,1025.33
2023-02-08T05:44:26.488Z,1025.33
2023-02-08T05:44:58.520Z,1025.13
2023-02-08T05:45:31.080Z,1025.13
2023-02-08T05:46:03.108Z,1025.23
2023-02-08T05:46:37.064Z,1025.23
2023-02-08T05:47:06.607Z,1025.13
2023-02-08T05:47:34.433Z,1025.43
2023-02-08T05:47:54.488Z,1025.43
2023-02-08T05:48:27.416Z,1025.43
2023-02-08T05:48:58.501Z,1025.33
2023-02-08T05:49:30.531Z,1025.33
2023-02-08T05:50:03.309Z,1025.33
2023-02-08T05:50:34.881Z,1025.33
2023-02-08T05:51:06.558Z,1025.23
2023-02-08T05:51:35.887Z,1025.23
2023-02-08T05:51:54.510Z,1025.23
2023-02-08T05:52:26.685Z,1025.23
2023-02-08T05:52:58.530Z,1025.33
2023-02-08T05:53:30.532Z,1025.33
2023-02-08T05:54:02.548Z,1025.43
2023-02-08T05:54:35.273Z,1025.43
2023-02-08T05:55:07.029Z,1025.43
2023-02-08T05:55:34.430Z,1025.23
2023-02-08T05:55:54.740Z,1025.23
2023-02-08T05:56:26.604Z,1025.23
2023-02-08T05:56:58.547Z,1025.43
2023-02-08T05:57:31.925Z,1025.43
2023-02-08T05:58:03.483Z,1025.43
2023-02-08T05:58:34.524Z,1025.43
2023-02-08T05:59:06.539Z,1025.33
2023-02-08T05:59:34.398Z,1025.33
2023-02-08T05:59:54.584Z,1025.33
2023-02-08T06:00:27.145Z,1025.33
2023-02-08T06:00:58.898Z,1025.23
2023-02-08T06:01:30.527Z,1025.23
2023-02-08T06:02:02.597Z,1025.33
2023-02-08T06:02:34.611Z,1025.33
2023-02-08T06:03:06.741Z,1025.33
2023-02-08T06:03:34.897Z,1025.13